createdAt,value
2023-05-09T00:00:45.374Z,98675.13
2023-05-09T00:01:46.978Z,98671.31
2023-05-09T00:02:48.647Z,98641.22
2023-05-09T00:03:51.829Z,98671.88
2023-05-09T00:04:53.594Z,98654.84
2023-05-09T00:05:55.223Z,98677.88
2023-05-09T00:06:56.950Z,98651.09
2023-05-09T00:07:58.508Z,98655.16
2023-05-09T00:09:00.111Z,98673.53
2023-05-09T00:10:01.755Z,98675.19
2023-05-09T00:11:03.477Z,98670.84
2023-05-09T00:12:05.487Z,98653.59
2023-05-09T00:13:07.224Z,98661.56
2023-05-09T00:14:08.814Z,98635.31
2023-05-09T00:15:11.016Z,98674.16
2023-05-09T00:16:13.885Z,98673.13
2023-05-09T00:17:16.134Z,98663.84
2023-05-09T00:18:18.068Z,98672.63
2023-05-09T00:19:20.206Z,98673.19
2023-05-09T00:20:21.786Z,98671.78
2023-05-09T00:21:23.329Z,98638.13
2023-05-09T00:22:24.922Z,98672.09
2023-05-09T00:23:26.450Z,98669.63
2023-05-09T00:24:28.074Z,98659.53
2023-05-09T00:25:29.665Z,98666.63
2023-05-09T00:26:31.203Z,98664.66
2023-05-09T00:27:32.752Z,98653.97
2023-05-09T00:28:34.320Z,98646.31
2023-05-09T00:29:35.984Z,98659.44
2023-05-09T00:30:37.554Z,98662.13
2023-05-09T00:31:39.187Z,98662.69
2023-05-09T00:32:41.655Z,98663.72
2023-05-09T00:33:43.407Z,98662.91
2023-05-09T00:34:44.957Z,98657.44
2023-05-09T00:35:46.771Z,98657.13
2023-05-09T00:36:48.369Z,98646.66
2023-05-09T00:37:49.942Z,98648.78
2023-05-09T00:38:51.506Z,98649.38
2023-05-09T00:39:53.096Z,98649.13
2023-05-09T00:40:54.638Z,98608.63
2023-05-09T00:41:56.445Z,98629.16
2023-05-09T00:42:59.558Z,98637.34
2023-05-09T00:44:01.113Z,98634.06
2023-05-09T00:45:02.815Z,98641.72
2023-05-09T00:46:04.600Z,98644.75
2023-05-09T00:47:07.479Z,98642.53
2023-05-09T00:48:09.048Z,98640.69
2023-05-09T00:49:12.388Z,98644.19
2023-05-09T00:50:14.020Z,98640.09
2023-05-09T00:51:15.739Z,98630.75
2023-05-09T00:52:21.846Z,98632.09
2023-05-09T00:53:23.407Z,98638.97
2023-05-09T00:54:25.152Z,98622.59
2023-05-09T00:55:27.336Z,98634.09
2023-05-09T00:56:28.875Z,98628.94
2023-05-09T00:57:30.616Z,98632.50
2023-05-09T00:58:32.258Z,98594.16
2023-05-09T00:59:33.820Z,98630.59
2023-05-09T01:00:35.534Z,98623.75
2023-05-09T01:01:37.507Z,98614.97
2023-05-09T01:02:43.878Z,98620.44
2023-05-09T01:03:45.783Z,98603.00
2023-05-09T01:04:47.347Z,98627.34
2023-05-09T01:06:09.279Z,98628.22
2023-05-09T01:07:29.960Z,98626.88
2023-05-09T01:08:56.190Z,98628.50
2023-05-09T01:10:04.833Z,98625.41
2023-05-09T01:11:25.106Z,98625.34
2023-05-09T01:12:31.831Z,98624.31
2023-05-09T01:13:49.763Z,98603.00
2023-05-09T01:15:07.928Z,98621.88
2023-05-09T01:16:35.478Z,98621.66
2023-05-09T01:17:39.132Z,98620.03
2023-05-09T01:18:45.589Z,98615.91
2023-05-09T01:19:50.055Z,98625.47
2023-05-09T01:20:58.504Z,98617.50
2023-05-09T01:22:01.014Z,98615.56
2023-05-09T01:23:30.284Z,98609.81
2023-05-09T01:24:46.392Z,98607.16
2023-05-09T01:25:54.493Z,98608.50
2023-05-09T01:27:15.804Z,98620.53
2023-05-09T01:28:19.442Z,98613.34
2023-05-09T01:29:35.373Z,98609.66
2023-05-09T01:30:36.957Z,98600.88
2023-05-09T01:31:39.850Z,98611.81
2023-05-09T01:32:42.189Z,98615.53
2023-05-09T01:33:43.872Z,98592.19
2023-05-09T01:34:45.441Z,98608.56
2023-05-09T01:35:50.099Z,98606.09
2023-05-09T01:36:52.008Z,98603.94
2023-05-09T01:37:53.553Z,98603.09
2023-05-09T01:38:55.106Z,98603.38
2023-05-09T01:39:58.835Z,98610.75
2023-05-09T01:41:00.466Z,98611.03
2023-05-09T01:42:03.223Z,98602.53
2023-05-09T01:43:07.234Z,98598.13
2023-05-09T01:44:11.156Z,98601.34
2023-05-09T01:45:13.870Z,98601.00
2023-05-09T01:46:16.163Z,98597.09
2023-05-09T01:47:18.426Z,98590.41
2023-05-09T01:48:21.013Z,98585.06
2023-05-09T01:49:22.763Z,98596.31
2023-05-09T01:50:24.299Z,98596.31
2023-05-09T01:51:26.039Z,98604.34
2023-05-09T01:52:27.962Z,98595.25
2023-05-09T01:53:29.535Z,98591.28
2023-05-09T01:54:31.158Z,98594.81
2023-05-09T01:55:33.812Z,98602.75
2023-05-09T01:56:36.271Z,98588.00
2023-05-09T01:57:38.130Z,98562.34
2023-05-09T01:58:39.680Z,98600.13
2023-05-09T01:59:42.283Z,98591.44
2023-05-09T02:00:44.065Z,98579.13
2023-05-09T02:01:46.232Z,98581.59
2023-05-09T02:02:48.007Z,98582.94
2023-05-09T02:03:52.660Z,98595.81
2023-05-09T02:04:55.894Z,98591.13
2023-05-09T02:05:57.422Z,98590.91
2023-05-09T02:06:58.978Z,98588.47
2023-05-09T02:08:00.738Z,98593.13
2023-05-09T02:09:02.686Z,98587.09
2023-05-09T02:10:05.021Z,98589.53
2023-05-09T02:11:07.341Z,98591.69
2023-05-09T02:12:09.021Z,98576.81
2023-05-09T02:13:10.991Z,98588.63
2023-05-09T02:14:13.494Z,98590.81
2023-05-09T02:15:15.232Z,98594.00
2023-05-09T02:16:17.262Z,98587.53
2023-05-09T02:17:19.229Z,98590.00
2023-05-09T02:18:21.826Z,98587.78
2023-05-09T02:19:23.361Z,98591.28
2023-05-09T02:20:24.931Z,98586.31
2023-05-09T02:21:27.898Z,98589.13
2023-05-09T02:22:30.706Z,98595.72
2023-05-09T02:23:32.328Z,98588.91
2023-05-09T02:24:36.788Z,98594.63
2023-05-09T02:25:38.441Z,98581.25
2023-05-09T02:26:40.413Z,98589.13
2023-05-09T02:27:42.469Z,98597.63
2023-05-09T02:28:44.413Z,98548.06
2023-05-09T02:29:50.575Z,98602.59
2023-05-09T02:30:52.213Z,98598.00
2023-05-09T02:31:53.770Z,98596.03
2023-05-09T02:32:59.886Z,98591.09
2023-05-09T02:34:02.513Z,98594.97
2023-05-09T02:35:04.213Z,98590.88
2023-05-09T02:36:06.210Z,98594.72
2023-05-09T02:37:07.835Z,98594.72
2023-05-09T02:38:09.402Z,98594.72
2023-05-09T02:39:11.442Z,98592.94
2023-05-09T02:40:13.455Z,98600.13
2023-05-09T02:41:15.672Z,98583.16
2023-05-09T02:42:21.267Z,98595.97
2023-05-09T02:43:22.800Z,98595.66
2023-05-09T02:44:24.360Z,98586.91
2023-05-09T02:45:26.147Z,98592.16
2023-05-09T02:46:31.036Z,98590.19
2023-05-09T02:47:33.033Z,98590.13
2023-05-09T02:48:35.369Z,98583.72
2023-05-09T02:49:36.971Z,98580.75
2023-05-09T02:50:39.515Z,98574.72
2023-05-09T02:51:41.119Z,98583.97
2023-05-09T02:52:42.624Z,98579.59
2023-05-09T02:53:44.173Z,98595.25
2023-05-09T02:54:45.808Z,98590.50
2023-05-09T02:55:47.357Z,98590.63
2023-05-09T02:56:48.908Z,98589.03
2023-05-09T02:57:54.113Z,98584.75
2023-05-09T02:59:04.114Z,98581.50
2023-05-09T03:00:09.685Z,98582.59
2023-05-09T03:01:11.262Z,98580.97
2023-05-09T03:02:12.850Z,98581.81
2023-05-09T03:03:14.701Z,98564.38
2023-05-09T03:04:28.209Z,98589.00
2023-05-09T03:05:29.744Z,98569.72
2023-05-09T03:06:31.412Z,98569.81
2023-05-09T03:07:33.000Z,98576.69
2023-05-09T03:08:34.540Z,98580.53
2023-05-09T03:09:36.138Z,98586.31
2023-05-09T03:10:37.682Z,98590.38
2023-05-09T03:11:39.317Z,98591.28
2023-05-09T03:12:43.679Z,98572.09
2023-05-09T03:13:45.712Z,98581.50
2023-05-09T03:14:47.392Z,98593.56
2023-05-09T03:15:48.981Z,98579.91
2023-05-09T03:16:50.551Z,98577.72
2023-05-09T03:17:52.133Z,98576.66
2023-05-09T03:18:54.048Z,98577.72
2023-05-09T03:19:55.669Z,98575.28
2023-05-09T03:20:57.368Z,98580.84
2023-05-09T03:21:58.912Z,98565.00
2023-05-09T03:23:00.862Z,98574.81
2023-05-09T03:24:04.592Z,98575.34
2023-05-09T03:25:06.556Z,98579.78
2023-05-09T03:26:08.113Z,98581.47
2023-05-09T03:27:09.652Z,98575.19
2023-05-09T03:28:11.506Z,98581.50
2023-05-09T03:29:13.092Z,98580.84
2023-05-09T03:30:14.756Z,98578.94
2023-05-09T03:31:16.407Z,98560.38
2023-05-09T03:32:17.990Z,98583.94
2023-05-09T03:33:19.917Z,98582.28
2023-05-09T03:34:21.526Z,98584.47
2023-05-09T03:35:23.164Z,98580.38
2023-05-09T03:36:24.864Z,98580.63
2023-05-09T03:37:27.185Z,98562.84
2023-05-09T03:38:28.930Z,98576.56
2023-05-09T03:39:30.542Z,98572.19
2023-05-09T03:40:32.076Z,98577.19
2023-05-09T03:41:36.001Z,98569.25
2023-05-09T03:42:37.564Z,98574.97
2023-05-09T03:43:39.249Z,98573.88
2023-05-09T03:44:40.943Z,98562.72
2023-05-09T03:45:42.485Z,98570.84
2023-05-09T03:46:44.042Z,98566.78
2023-05-09T03:47:46.257Z,98541.38
2023-05-09T03:48:47.853Z,98565.69
2023-05-09T03:49:49.432Z,98559.94
2023-05-09T03:50:51.030Z,98559.19
2023-05-09T03:51:52.536Z,98575.91
2023-05-09T03:52:55.259Z,98567.47
2023-05-09T03:53:56.792Z,98574.72
2023-05-09T03:54:58.355Z,98572.81
2023-05-09T03:55:59.905Z,98571.53
2023-05-09T03:57:01.438Z,98543.38
2023-05-09T03:58:03.803Z,98582.00
2023-05-09T03:59:05.352Z,98551.69
2023-05-09T04:00:08.131Z,98574.16
2023-05-09T04:01:09.750Z,98572.38
2023-05-09T04:02:11.671Z,98580.09
2023-05-09T04:03:13.268Z,98577.00
2023-05-09T04:04:14.836Z,98579.41
2023-05-09T04:05:16.801Z,98569.13
2023-05-09T04:06:18.893Z,98562.09
2023-05-09T04:07:20.810Z,98580.94
2023-05-09T04:08:22.342Z,98575.47
2023-05-09T04:09:23.917Z,98560.13
2023-05-09T04:10:25.747Z,98566.47
2023-05-09T04:11:27.300Z,98576.81
2023-05-09T04:12:28.854Z,98563.63
2023-05-09T04:13:31.778Z,98571.00
2023-05-09T04:14:33.369Z,98586.78
2023-05-09T04:15:34.926Z,98584.75
2023-05-09T04:16:36.520Z,98584.94
2023-05-09T04:17:38.089Z,98587.53
2023-05-09T04:18:42.179Z,98585.19
2023-05-09T04:19:43.728Z,98580.03
2023-05-09T04:20:45.298Z,98582.94
2023-05-09T04:21:46.831Z,98584.53
2023-05-09T04:22:48.717Z,98581.94
2023-05-09T04:23:50.467Z,98594.59
2023-05-09T04:24:52.004Z,98590.84
2023-05-09T04:25:54.369Z,98595.41
2023-05-09T04:26:56.000Z,98584.34
2023-05-09T04:27:57.789Z,98578.19
2023-05-09T04:28:59.317Z,98584.53
2023-05-09T04:30:00.854Z,98581.25
2023-05-09T04:31:03.084Z,98567.81
2023-05-09T04:32:05.212Z,98572.44
2023-05-09T04:33:06.826Z,98570.31
2023-05-09T04:34:08.340Z,98580.91
2023-05-09T04:35:10.121Z,98577.09
2023-05-09T04:36:12.292Z,98578.97
2023-05-09T04:37:13.898Z,98572.81
2023-05-09T04:38:16.693Z,98568.91
2023-05-09T04:39:18.906Z,98566.19
2023-05-09T04:40:20.572Z,98569.81
2023-05-09T04:41:22.776Z,98578.31
2023-05-09T04:42:24.293Z,98577.31
2023-05-09T04:43:28.023Z,98539.28
2023-05-09T04:44:29.606Z,98580.34
2023-05-09T04:45:31.819Z,98579.22
2023-05-09T04:46:33.398Z,98581.94
2023-05-09T04:47:34.988Z,98573.69
2023-05-09T04:48:36.518Z,98573.28
2023-05-09T04:49:38.030Z,98578.19
2023-05-09T04:50:39.547Z,98587.31
2023-05-09T04:51:41.110Z,98582.78
2023-05-09T04:52:42.641Z,98573.72
2023-05-09T04:53:44.160Z,98581.13
2023-05-09T04:54:45.733Z,98578.72
2023-05-09T04:55:47.281Z,98567.53
2023-05-09T04:56:50.600Z,98560.81
2023-05-09T04:57:52.346Z,98572.06
2023-05-09T04:58:54.051Z,98576.25
2023-05-09T04:59:55.901Z,98569.06
2023-05-09T05:00:57.411Z,98574.03
2023-05-09T05:01:59.171Z,98582.75
2023-05-09T05:03:01.452Z,98577.00
2023-05-09T05:04:03.001Z,98578.06
2023-05-09T05:05:11.456Z,98574.94
2023-05-09T05:06:13.904Z,98582.13
2023-05-09T05:07:15.796Z,98578.75
2023-05-09T05:08:17.635Z,98576.34
2023-05-09T05:09:19.173Z,98581.72
2023-05-09T05:10:20.937Z,98576.59
2023-05-09T05:11:22.657Z,98574.81
2023-05-09T05:12:24.878Z,98586.31
2023-05-09T05:13:26.549Z,98560.47
2023-05-09T05:14:28.528Z,98579.91
2023-05-09T05:15:32.439Z,98582.00
2023-05-09T05:16:34.869Z,98581.84
2023-05-09T05:17:36.665Z,98560.50
2023-05-09T05:18:38.233Z,98561.75
2023-05-09T05:19:39.828Z,98578.50
2023-05-09T05:20:41.765Z,98580.34
2023-05-09T05:21:43.768Z,98564.38
2023-05-09T05:22:45.879Z,98576.31
2023-05-09T05:23:50.132Z,98568.88
2023-05-09T05:24:52.122Z,98579.06
2023-05-09T05:25:53.904Z,98507.88
2023-05-09T05:26:55.582Z,98573.25
2023-05-09T05:27:57.550Z,98572.19
2023-05-09T05:29:01.557Z,98561.81
2023-05-09T05:30:04.031Z,98573.91
2023-05-09T05:31:05.926Z,98567.16
2023-05-09T05:32:07.523Z,98575.03
2023-05-09T05:33:09.492Z,98575.84
2023-05-09T05:34:11.122Z,98565.91
2023-05-09T05:35:12.903Z,98575.53
2023-05-09T05:36:14.885Z,98573.00
2023-05-09T05:37:16.401Z,98571.91
2023-05-09T05:38:18.239Z,98560.00
2023-05-09T05:39:19.801Z,98571.16
2023-05-09T05:40:21.389Z,98563.63
2023-05-09T05:41:23.484Z,98555.88
2023-05-09T05:42:25.022Z,98569.47
2023-05-09T05:43:26.549Z,98564.81
2023-05-09T05:44:28.064Z,98553.91
2023-05-09T05:45:31.007Z,98567.53
2023-05-09T05:46:32.667Z,98564.25
2023-05-09T05:47:35.281Z,98561.03
2023-05-09T05:48:37.179Z,98561.00
2023-05-09T05:49:38.793Z,98552.03
2023-05-09T05:50:40.325Z,98554.66
2023-05-09T05:51:41.888Z,98533.66
2023-05-09T05:52:43.440Z,98543.50
2023-05-09T05:53:45.277Z,98545.53
2023-05-09T05:54:47.291Z,98541.50
2023-05-09T05:55:49.175Z,98543.78
2023-05-09T05:56:50.938Z,98551.19
2023-05-09T05:57:52.516Z,98541.97
2023-05-09T05:58:54.418Z,98545.53
2023-05-09T05:59:55.935Z,98543.38
2023-05-09T06:00:57.815Z,98551.06
2023-05-09T06:01:59.409Z,98545.59
2023-05-09T06:03:01.175Z,98532.97
2023-05-09T06:04:03.980Z,98531.19
2023-05-09T06:05:07.239Z,98551.38
2023-05-09T06:06:08.989Z,98540.28
2023-05-09T06:07:14.107Z,98522.06
2023-05-09T06:08:16.190Z,98542.25
2023-05-09T06:09:17.770Z,98540.16
2023-05-09T06:10:19.440Z,98525.03
2023-05-09T06:11:21.249Z,98539.91
2023-05-09T06:12:22.768Z,98537.88
2023-05-09T06:13:24.534Z,98532.75
2023-05-09T06:14:26.229Z,98536.97
2023-05-09T06:15:27.758Z,98528.47
2023-05-09T06:16:29.354Z,98523.81
2023-05-09T06:17:30.990Z,98531.50
2023-05-09T06:18:37.584Z,98515.66
2023-05-09T06:19:39.093Z,98523.34
2023-05-09T06:20:40.887Z,98537.31
2023-05-09T06:21:45.725Z,98523.66
2023-05-09T06:22:47.619Z,98541.94
2023-05-09T06:24:04.975Z,98530.66
2023-05-09T06:25:12.800Z,98525.34
2023-05-09T06:26:15.015Z,98526.44
2023-05-09T06:27:16.559Z,98537.66
2023-05-09T06:28:18.076Z,98533.94
2023-05-09T06:29:19.617Z,98514.31
2023-05-09T06:31:26.288Z,98528.75
2023-05-09T06:32:27.859Z,98511.34
2023-05-09T06:33:29.484Z,98529.81
2023-05-09T06:34:31.013Z,98529.53
2023-05-09T06:35:33.010Z,98531.47
2023-05-09T06:36:34.847Z,98528.53
2023-05-09T06:37:36.338Z,98523.41
2023-05-09T06:38:38.747Z,98503.56
2023-05-09T06:39:40.461Z,98522.03
2023-05-09T06:40:45.635Z,98518.44
2023-05-09T06:41:47.607Z,98518.47
2023-05-09T06:44:14.824Z,98525.13
2023-05-09T07:54:40.132Z,98436.53
2023-05-09T07:55:51.894Z,98410.81
2023-05-09T07:56:53.500Z,98427.31
2023-05-09T07:57:55.050Z,98422.28
2023-05-09T07:58:56.709Z,98414.56
2023-05-09T07:59:58.325Z,98427.28
2023-05-09T08:00:59.883Z,98431.34
2023-05-09T08:02:02.156Z,98423.59
2023-05-09T08:03:03.998Z,98405.69
2023-05-09T08:04:07.008Z,98387.81
2023-05-09T08:05:08.792Z,98422.72
2023-05-09T08:06:11.193Z,98401.44
2023-05-09T08:07:13.062Z,98411.19
2023-05-09T08:08:14.599Z,98388.63
2023-05-09T08:09:19.419Z,98414.22
2023-05-09T08:10:22.370Z,98415.31
2023-05-09T08:11:23.940Z,98405.19
2023-05-09T08:12:25.964Z,98408.81
2023-05-09T08:13:27.647Z,98400.63
2023-05-09T08:14:29.934Z,98394.75
2023-05-09T08:16:19.946Z,98385.50
2023-05-09T08:17:21.556Z,98401.81
2023-05-09T08:18:25.538Z,98400.34
2023-05-09T08:19:27.189Z,98401.63
2023-05-09T08:20:29.263Z,98395.53
2023-05-09T08:21:33.690Z,98391.03
2023-05-09T08:22:35.589Z,98380.06
2023-05-09T08:23:37.436Z,98401.03
2023-05-09T08:24:39.298Z,98382.09
2023-05-09T08:25:40.882Z,98390.69
2023-05-09T08:26:42.421Z,98387.31
2023-05-09T08:27:44.739Z,98382.28
2023-05-09T08:28:46.279Z,98375.28
2023-05-09T08:29:47.823Z,98362.31
2023-05-09T08:30:49.424Z,98388.72
2023-05-09T08:31:53.794Z,98389.25
2023-05-09T08:32:56.656Z,98381.97
2023-05-09T08:33:58.255Z,98383.44
2023-05-09T08:34:59.770Z,98378.00
2023-05-09T08:36:02.056Z,98358.44
2023-05-09T08:37:04.241Z,98369.03
2023-05-09T08:38:05.877Z,98373.91
2023-05-09T08:39:09.476Z,98369.41
2023-05-09T09:16:29.001Z,98309.63
2023-05-09T09:17:30.650Z,98321.16
2023-05-09T09:18:32.257Z,98287.91
2023-05-09T09:19:34.099Z,98287.00
2023-05-09T09:20:36.763Z,98287.72
2023-05-09T09:21:40.221Z,98290.19
2023-05-09T09:22:43.110Z,98288.09
2023-05-09T09:23:45.148Z,98310.38
2023-05-09T09:46:54.719Z,98278.47
2023-05-09T09:47:55.580Z,98272.25
2023-05-09T09:48:56.958Z,98264.66
2023-05-09T09:49:58.462Z,98274.78
2023-05-09T09:51:09.963Z,98259.97
2023-05-09T09:52:11.870Z,98271.78
2023-05-09T09:53:13.730Z,98261.16
2023-05-09T09:54:15.456Z,98263.03
2023-05-09T09:55:17.844Z,98261.84
2023-05-09T09:56:21.454Z,98254.72
2023-05-09T09:57:37.037Z,98250.63
2023-05-09T09:58:38.583Z,98255.78
2023-05-09T09:59:40.121Z,98251.97
2023-05-09T10:00:41.701Z,98255.22
2023-05-09T10:03:17.443Z,98256.09
2023-05-09T10:04:19.001Z,98251.34
2023-05-09T10:05:24.092Z,98255.31
2023-05-09T10:06:25.609Z,98252.19
2023-05-09T10:07:27.148Z,98242.56
2023-05-09T10:08:28.660Z,98236.06
2023-05-09T10:09:30.194Z,98240.75
2023-05-09T10:10:32.743Z,98238.94
2023-05-09T10:11:34.312Z,98240.41
2023-05-09T10:12:36.894Z,98244.06
2023-05-09T10:13:38.808Z,98224.19
2023-05-09T10:14:40.799Z,98232.34
2023-05-09T10:15:53.049Z,98219.84
2023-05-09T10:16:57.157Z,98229.94
2023-05-09T10:18:00.949Z,98223.25
2023-05-09T10:19:02.757Z,98221.47
2023-05-09T10:20:07.767Z,98226.78
2023-05-09T10:21:09.442Z,98225.00
2023-05-09T10:22:11.067Z,98222.72
2023-05-09T10:23:12.597Z,98216.13
2023-05-09T10:24:14.122Z,98222.47
2023-05-09T10:25:25.983Z,98221.09
2023-05-09T10:26:29.076Z,98219.34
2023-05-09T10:27:34.832Z,98212.75
2023-05-09T10:28:36.397Z,98208.72
2023-05-09T10:29:40.451Z,98200.28
2023-05-09T10:30:58.514Z,98199.03
2023-05-09T10:32:00.251Z,98208.66
2023-05-09T10:33:09.064Z,98201.66
2023-05-09T10:34:10.690Z,98189.69
2023-05-09T10:35:14.092Z,98196.66
2023-05-09T10:36:18.212Z,98171.75
2023-05-09T10:37:21.759Z,98191.16
2023-05-09T10:38:24.670Z,98174.31
2023-05-09T10:39:27.408Z,98181.16
2023-05-09T10:40:29.175Z,98191.41
2023-05-09T10:41:31.162Z,98192.56
2023-05-09T10:42:32.928Z,98182.06
2023-05-09T10:43:36.608Z,98180.44
2023-05-09T10:44:38.288Z,98169.09
2023-05-09T10:45:40.079Z,98174.41
2023-05-09T10:46:41.662Z,98170.38
2023-05-09T10:47:43.796Z,98168.91
2023-05-09T10:48:45.511Z,98167.13
2023-05-09T10:49:47.384Z,98158.34
2023-05-09T10:50:49.091Z,98154.75
2023-05-09T10:51:53.654Z,98165.13
2023-05-09T10:53:04.282Z,98159.59
2023-05-09T10:54:13.725Z,98149.34
2023-05-09T10:55:15.588Z,98159.25
2023-05-09T10:56:33.611Z,98138.72
2023-05-09T10:57:35.508Z,98149.06
2023-05-09T10:58:41.388Z,98143.41
2023-05-09T10:59:43.402Z,98145.66
2023-05-09T11:00:45.005Z,98132.84
2023-05-09T11:01:46.855Z,98143.88
2023-05-09T11:03:07.998Z,98144.53
2023-05-09T11:04:11.502Z,98138.69
2023-05-09T11:05:20.286Z,98135.94
2023-05-09T11:06:40.857Z,98137.66
2023-05-09T11:07:44.024Z,98132.56
2023-05-09T11:08:45.717Z,98107.63
2023-05-09T11:09:47.228Z,98117.91
2023-05-09T11:10:48.807Z,98118.56
2023-05-09T11:11:54.004Z,98121.00
2023-05-09T11:13:00.044Z,98118.06
2023-05-09T11:14:01.556Z,98123.28
2023-05-09T11:15:07.752Z,98112.34
2023-05-09T11:16:09.995Z,98089.63
2023-05-09T11:17:12.948Z,98108.03
2023-05-09T11:18:14.562Z,98105.56
2023-05-09T11:19:37.074Z,98107.19
2023-05-09T11:20:45.329Z,98089.47
2023-05-09T11:22:03.484Z,98098.13
2023-05-09T11:23:06.479Z,98104.28
2023-05-09T11:24:17.489Z,98080.91
2023-05-09T11:25:25.279Z,98098.25
2023-05-09T11:26:28.830Z,98089.81
2023-05-09T11:27:44.697Z,98065.66
2023-05-09T11:28:52.381Z,98106.97
2023-05-09T11:29:58.594Z,98079.06
2023-05-09T11:31:13.784Z,98088.19
2023-05-09T11:32:16.123Z,98084.94
2023-05-09T11:33:24.974Z,98071.63
2023-05-09T11:34:26.494Z,98087.03
2023-05-09T11:35:28.038Z,98057.34
2023-05-09T11:36:32.104Z,98081.69
2023-05-09T11:37:34.051Z,98087.22
2023-05-09T11:38:41.997Z,98086.56
2023-05-09T11:39:58.600Z,98076.81
2023-05-09T11:41:00.108Z,98076.47
2023-05-09T11:42:02.021Z,98071.34
2023-05-09T11:43:03.941Z,98085.75
2023-05-09T11:44:15.697Z,98078.94
2023-05-09T11:45:17.509Z,98073.91
2023-05-09T11:46:19.244Z,98070.53
2023-05-09T11:47:21.788Z,98071.13
2023-05-09T11:48:24.479Z,98040.25
2023-05-09T11:49:26.002Z,98069.16
2023-05-09T11:50:27.559Z,98047.44
2023-05-09T11:51:30.435Z,98059.59
2023-05-09T11:52:32.354Z,98061.25
2023-05-09T11:53:34.125Z,98055.88
2023-05-09T11:54:39.304Z,98048.69
2023-05-09T11:55:41.260Z,98051.44
2023-05-09T11:56:42.797Z,98047.25
2023-05-09T11:57:52.185Z,98029.84
2023-05-09T11:58:53.717Z,98033.31
2023-05-09T11:59:55.519Z,98031.03
2023-05-09T12:00:57.481Z,98031.41
2023-05-09T12:02:05.576Z,98034.56
2023-05-09T12:03:07.943Z,98028.00
2023-05-09T12:04:09.710Z,98012.69
2023-05-09T12:05:16.010Z,98030.56
2023-05-09T12:06:18.902Z,98025.81
2023-05-09T12:07:20.633Z,98037.63
2023-05-09T12:08:23.134Z,98039.97
2023-05-09T12:09:25.871Z,98027.63
2023-05-09T12:10:27.448Z,98035.44
2023-05-09T12:11:32.245Z,98032.84
2023-05-09T12:12:35.427Z,98030.06
2023-05-09T12:13:50.282Z,98001.19
2023-05-09T12:14:51.999Z,98023.28
2023-05-09T12:16:00.518Z,98024.63
2023-05-09T12:17:02.145Z,98017.16
2023-05-09T12:18:05.132Z,98005.84
2023-05-09T12:19:06.783Z,98011.88
2023-05-09T12:20:08.975Z,98011.28
2023-05-09T12:21:10.729Z,98001.25
2023-05-09T12:22:12.256Z,98003.38
2023-05-09T12:23:14.883Z,97999.91
2023-05-09T12:24:23.091Z,97987.22
2023-05-09T12:25:24.618Z,97997.97
2023-05-09T12:26:27.095Z,97989.94
2023-05-09T12:27:29.152Z,97989.94
2023-05-09T12:28:31.203Z,97987.22
2023-05-09T12:29:32.855Z,97984.00
2023-05-09T12:30:34.499Z,97983.59
2023-05-09T12:31:37.276Z,97979.38
2023-05-09T12:32:40.189Z,97976.75
2023-05-09T12:33:42.500Z,97972.38
2023-05-09T12:34:48.539Z,97960.91
2023-05-09T12:36:11.284Z,97968.28
2023-05-09T12:37:17.371Z,97970.22
2023-05-09T12:38:22.202Z,97968.91
2023-05-09T12:39:24.473Z,97964.91
2023-05-09T12:40:26.209Z,97957.88
2023-05-09T12:41:39.291Z,97960.09
2023-05-09T12:42:46.439Z,97972.81
2023-05-09T12:43:49.106Z,97965.91
2023-05-09T12:44:50.683Z,97961.03
2023-05-09T12:45:55.398Z,97974.78
2023-05-09T12:47:03.664Z,97967.38
2023-05-09T12:48:06.193Z,97954.84
2023-05-09T12:49:20.053Z,97953.38
2023-05-09T12:50:21.815Z,97955.88
2023-05-09T12:51:23.566Z,97947.00
2023-05-09T12:52:25.173Z,97940.88
2023-05-09T12:53:27.520Z,97951.63
2023-05-09T12:54:29.638Z,97951.44
2023-05-09T12:55:32.780Z,97949.94
2023-05-09T12:56:35.278Z,97950.91
2023-05-09T12:57:37.162Z,97948.50
2023-05-09T12:58:39.518Z,97948.75
2023-05-09T12:59:43.775Z,97944.69
2023-05-09T13:00:45.580Z,97948.16
2023-05-09T13:02:00.496Z,97954.34
2023-05-09T13:03:02.654Z,97957.28
2023-05-09T13:04:05.270Z,97946.88
2023-05-09T13:05:11.116Z,97939.41
2023-05-09T13:06:13.858Z,97943.34
2023-05-09T13:07:15.389Z,97932.09
2023-05-09T13:08:17.236Z,97932.13
2023-05-09T13:09:18.874Z,97928.22
2023-05-09T13:10:24.165Z,97933.34
2023-05-09T13:11:25.917Z,97935.69
2023-05-09T13:12:27.437Z,97930.94
2023-05-09T13:13:29.428Z,97929.94
2023-05-09T13:14:31.057Z,97929.91
2023-05-09T13:15:33.774Z,97924.59
2023-05-09T13:16:35.774Z,97923.22
2023-05-09T13:17:37.779Z,97922.31
2023-05-09T13:18:39.410Z,97914.84
2023-05-09T13:19:41.144Z,97913.44
2023-05-09T13:20:42.690Z,97913.50
2023-05-09T13:21:44.226Z,97916.53
2023-05-09T13:22:46.049Z,97910.16
2023-05-09T13:23:50.499Z,97905.44
2023-05-09T13:24:52.156Z,97912.25
2023-05-09T13:25:53.928Z,97891.81
2023-05-09T13:26:55.666Z,97915.16
2023-05-09T13:27:57.222Z,97901.41
2023-05-09T13:28:58.796Z,97907.19
2023-05-09T13:30:00.422Z,97901.41
2023-05-09T13:31:02.971Z,97905.47
2023-05-09T13:32:04.667Z,97890.19
2023-05-09T13:33:23.782Z,97885.00
2023-05-09T13:34:26.560Z,97894.13
2023-05-09T13:35:28.293Z,97899.19
2023-05-09T13:36:29.882Z,97851.09
2023-05-09T13:37:31.407Z,97889.38
2023-05-09T13:38:37.074Z,97885.72
2023-05-09T13:39:38.576Z,97892.28
2023-05-09T13:40:40.171Z,97887.63
2023-05-09T13:41:41.708Z,97878.00
2023-05-09T13:42:43.284Z,97882.00
2023-05-09T13:43:44.832Z,97885.59
2023-05-09T13:44:46.356Z,97884.91
2023-05-09T13:45:47.917Z,97889.28
2023-05-09T13:46:49.934Z,97890.44
2023-05-09T13:47:52.057Z,97870.66
2023-05-09T13:48:54.204Z,97884.13
2023-05-09T13:49:55.909Z,97876.53
2023-05-09T13:50:59.525Z,97877.50
2023-05-09T13:52:01.496Z,97867.31
2023-05-09T13:53:03.711Z,97862.16
2023-05-09T13:54:09.652Z,97865.41
2023-05-09T13:55:11.255Z,97876.75
2023-05-09T13:56:12.886Z,97872.31
2023-05-09T13:57:14.425Z,97868.25
2023-05-09T13:58:16.614Z,97868.69
2023-05-09T13:59:18.301Z,97861.41
2023-05-09T14:00:21.377Z,97869.19
2023-05-09T14:01:23.439Z,97856.81
2023-05-09T14:02:25.146Z,97833.84
2023-05-09T14:03:27.090Z,97873.00
2023-05-09T14:04:29.524Z,97863.88
2023-05-09T14:05:34.122Z,97859.72
2023-05-09T14:06:35.684Z,97840.53
2023-05-09T14:07:37.636Z,97853.97
2023-05-09T14:08:39.844Z,97854.09
2023-05-09T14:09:42.232Z,97848.81
2023-05-09T14:10:44.613Z,97847.00
2023-05-09T14:11:46.114Z,97834.78
2023-05-09T14:12:48.107Z,97847.09
2023-05-09T14:13:49.640Z,97845.72
2023-05-09T14:14:51.253Z,97847.91
2023-05-09T14:15:52.867Z,97852.22
2023-05-09T14:16:54.662Z,97840.56
2023-05-09T14:17:57.308Z,97840.97
2023-05-09T14:18:58.906Z,97843.56
2023-05-09T14:20:00.483Z,97843.69
2023-05-09T14:21:02.007Z,97850.59
2023-05-09T14:22:04.425Z,97839.16
2023-05-09T14:23:06.190Z,97833.16
2023-05-09T14:24:07.958Z,97840.63
2023-05-09T14:25:12.548Z,97843.53
2023-05-09T14:26:14.097Z,97833.91
2023-05-09T14:27:16.420Z,97825.47
2023-05-09T14:28:18.008Z,97825.59
2023-05-09T14:29:19.527Z,97831.06
2023-05-09T14:30:21.060Z,97829.88
2023-05-09T14:31:22.587Z,97815.19
2023-05-09T14:32:25.351Z,97814.34
2023-05-09T14:33:27.931Z,97828.66
2023-05-09T14:34:29.496Z,97816.06